Lauderhill, FL (33313)

7:17 PM EDT on October 24, 2014 (GMT -0400)
Pine island and sunrise blvd | Change Station
CLOSE
Current Station
Personal Weather Station
Location: Fort Lauderdale, FL
Elevation: 16 ft
Nearby Weather Stations

Elev 16 ft 26.14 °N, 80.28 °W | Updated 6 minutes ago

Overcast
Overcast
75.4 °F
Feels Like 77 °F
N
7.3
Wind Variable Wind from ENE

Today
High -- | Low -- °F
--% Chance of Precip.
Yesterday
High -- | Low -- °F
Precip. -- in
7:24 AM 6:44 PM
New Moon, 1% visible
Pressure 29.83 in
Visibility 10.0 miles
Clouds Mostly Cloudy 3800 ft
Overcast 6000 ft
Heat Index 77 °F
Dew Point 67 °F
Humidity 76%
Rainfall 0.00 in
Snow Depth Not available.
UV 0 out of 12
Pollen .40 out of 12
Air Quality Not available.
Flu Activity Not available.
METAR KFXE 242253Z 01007KT 10SM BKN038 OVC060 25/20 A2983 RMK AO2 RAB2154E03 SLP102 P0000 T02500200

More Conditions Fewer Conditions

Pressure 29.83 in
Visibility 10.0 miles
Clouds Mostly Cloudy 3800 ft
Overcast 6000 ft
Heat Index 77 °F
Dew Point 67 °F
Humidity 76%
Rainfall 0.00 in
Snow Depth Not available.
UV 0 out of 12
Pollen .40 out of 12
Air Quality Not available.
Flu Activity Not available.
METAR KFXE 242253Z 01007KT 10SM BKN038 OVC060 25/20 A2983 RMK AO2 RAB2154E03 SLP102 P0000 T02500200

More Conditions Fewer Conditions

Nowcast | as of 6:12 PM EDT on October 24, 2014

Weather conditions will continue to improve across Southeast Florida, with only a few fast-moving light showers affecting the area this evening. Winds will remain breezy out of the northeast at 15 mph with temperatures in the 70s. Marine conditions will remain rough with seas up to 9 ft in the Gulf Stream.

×

10-Day Weather Forecast

Almanac

Astronomy

Oct. 24, 2014 Rise Set
Actual Time 7:24 AM EDT 6:44 PM EDT
Civil Twilight 7:01 AM EDT 7:08 PM EDT
Nautical Twilight 6:34 AM EDT 7:35 PM EDT
Astronomical Twilight 6:07 AM EDT 8:02 PM EDT
Moon 7:59 AM EDT 7:28 PM EDT
Length of Visible Light 12h 07m
Length of Day
11h 20m
Tomorrow will be 1m 24s shorter.
New Moon, 1% of the Moon is Illuminated
Today
New Moon
Oct 30
First Quarter
Nov 6
Full
Nov 14
Last Quarter
Nov 22
New

Today's Extremes

State Highs State Lows

Community

WunderPhotos

Upload Photos

1,764,708 photos uploaded!

Nearby

Snow Depth

Station Depth Elevation
No new snow has been reported.

Earthquake Activity

City Distance Mag. Time & Date
No recent earthquake activity has been reported nearby.
Minimum magnitude displayed is 2.5.

Coastal Water Temperatures

Place Temperature
Virginia Key, FL 79.0 °F

Nearby Weather Stations